sensor_id;sensor_type;location;lat;lon;timestamp;pressure;altitude;pressure_sealevel;temperature;humidity
69257;BME280;56376;53.356;-1.748;2022-08-04T00:00:39;99223.94;;;16.06;76.34
69257;BME280;56376;53.356;-1.748;2022-08-04T00:05:43;99216.41;;;16.00;76.80
69257;BME280;56376;53.356;-1.748;2022-08-04T00:11:00;99217.00;;;15.91;76.68
69257;BME280;56376;53.356;-1.748;2022-08-04T00:13:29;99215.41;;;15.88;77.13
69257;BME280;56376;53.356;-1.748;2022-08-04T00:16:04;99217.31;;;15.86;77.33
69257;BME280;56376;53.356;-1.748;2022-08-04T00:21:04;99217.50;;;15.83;77.45
69257;BME280;56376;53.356;-1.748;2022-08-04T00:23:33;99221.81;;;15.84;77.29
69257;BME280;56376;53.356;-1.748;2022-08-04T00:25:59;99224.44;;;15.84;77.40
69257;BME280;56376;53.356;-1.748;2022-08-04T00:28:26;99218.44;;;15.82;77.19
69257;BME280;56376;53.356;-1.748;2022-08-04T00:30:53;99220.34;;;15.80;77.19
69257;BME280;56376;53.356;-1.748;2022-08-04T00:33:19;99221.38;;;15.77;77.41
69257;BME280;56376;53.356;-1.748;2022-08-04T00:35:48;99215.44;;;15.74;77.54
69257;BME280;56376;53.356;-1.748;2022-08-04T00:38:16;99216.47;;;15.71;77.35
69257;BME280;56376;53.356;-1.748;2022-08-04T00:41:10;99212.28;;;15.67;77.67
69257;BME280;56376;53.356;-1.748;2022-08-04T00:52:28;99219.53;;;15.49;77.87
69257;BME280;56376;53.356;-1.748;2022-08-04T00:55:18;99214.66;;;15.43;77.99
69257;BME280;56376;53.356;-1.748;2022-08-04T00:58:10;99214.19;;;15.36;78.26
69257;BME280;56376;53.356;-1.748;2022-08-04T01:00:50;99210.06;;;15.32;78.46
69257;BME280;56376;53.356;-1.748;2022-08-04T01:03:49;99221.78;;;15.27;78.69
69257;BME280;56376;53.356;-1.748;2022-08-04T01:06:34;99205.56;;;15.20;78.90
69257;BME280;56376;53.356;-1.748;2022-08-04T01:14:53;99200.94;;;15.09;79.28
69257;BME280;56376;53.356;-1.748;2022-08-04T01:17:31;99209.75;;;15.08;78.99
69257;BME280;56376;53.356;-1.748;2022-08-04T01:20:00;99207.31;;;15.05;79.09
69257;BME280;56376;53.356;-1.748;2022-08-04T01:22:37;99204.88;;;15.02;79.16
69257;BME280;56376;53.356;-1.748;2022-08-04T01:30:35;99214.25;;;14.92;79.48
69257;BME280;56376;53.356;-1.748;2022-08-04T01:33:08;99207.38;;;14.89;79.54
69257;BME280;56376;53.356;-1.748;2022-08-04T01:36:09;99205.03;;;14.85;79.70
69257;BME280;56376;53.356;-1.748;2022-08-04T01:38:38;99207.72;;;14.83;79.57
69257;BME280;56376;53.356;-1.748;2022-08-04T01:41:06;99205.38;;;14.79;79.90
69257;BME280;56376;53.356;-1.748;2022-08-04T01:43:34;99194.28;;;14.74;80.23
69257;BME280;56376;53.356;-1.748;2022-08-04T01:46:03;99206.66;;;14.71;80.27
69257;BME280;56376;53.356;-1.748;2022-08-04T01:48:29;99200.75;;;14.68;80.67
69257;BME280;56376;53.356;-1.748;2022-08-04T01:51:03;99202.63;;;14.66;80.74
69257;BME280;56376;53.356;-1.748;2022-08-04T01:53:31;99200.16;;;14.63;81.09
69257;BME280;56376;53.356;-1.748;2022-08-04T01:55:57;99200.25;;;14.61;81.17
69257;BME280;56376;53.356;-1.748;2022-08-04T01:58:24;99201.28;;;14.59;81.21
69257;BME280;56376;53.356;-1.748;2022-08-04T02:01:02;99206.63;;;14.57;81.13
69257;BME280;56376;53.356;-1.748;2022-08-04T02:03:29;99205.03;;;14.55;80.62
69257;BME280;56376;53.356;-1.748;2022-08-04T02:11:52;99203.00;;;14.44;80.97
69257;BME280;56376;53.356;-1.748;2022-08-04T02:17:26;99200.97;;;14.33;81.20
69257;BME280;56376;53.356;-1.748;2022-08-04T02:20:03;99200.38;;;14.28;81.17
69257;BME280;56376;53.356;-1.748;2022-08-04T02:22:58;99206.81;;;14.22;81.17
69257;BME280;56376;53.356;-1.748;2022-08-04T02:25:22;99206.81;;;14.22;81.33
69257;BME280;56376;53.356;-1.748;2022-08-04T02:27:56;99204.38;;;14.19;81.37
69257;BME280;56376;53.356;-1.748;2022-08-04T02:30:30;99203.69;;;14.16;81.36
69257;BME280;56376;53.356;-1.748;2022-08-04T02:33:02;99201.00;;;14.17;80.94
69257;BME280;56376;53.356;-1.748;2022-08-04T02:35:28;99203.53;;;14.19;81.16
69257;BME280;56376;53.356;-1.748;2022-08-04T02:38:10;99201.56;;;14.22;81.29
69257;BME280;56376;53.356;-1.748;2022-08-04T02:40:38;99206.00;;;14.22;81.54
69257;BME280;56376;53.356;-1.748;2022-08-04T02:43:05;99204.38;;;14.19;81.91
69257;BME280;56376;53.356;-1.748;2022-08-04T02:45:35;99208.88;;;14.17;82.03
69257;BME280;56376;53.356;-1.748;2022-08-04T02:48:02;99205.47;;;14.15;82.09
69257;BME280;56376;53.356;-1.748;2022-08-04T02:50:31;99208.22;;;14.14;82.45
69257;BME280;56376;53.356;-1.748;2022-08-04T02:52:59;99211.69;;;14.14;82.75
69257;BME280;56376;53.356;-1.748;2022-08-04T02:55:28;99209.13;;;14.13;82.84
69257;BME280;56376;53.356;-1.748;2022-08-04T02:57:57;99205.84;;;14.09;83.30
69257;BME280;56376;53.356;-1.748;2022-08-04T03:00:22;99206.75;;;14.08;83.33
69257;BME280;56376;53.356;-1.748;2022-08-04T03:12:13;99212.19;;;14.05;84.42
69257;BME280;56376;53.356;-1.748;2022-08-04T03:31:21;99204.56;;;14.16;86.81
69257;BME280;56376;53.356;-1.748;2022-08-04T03:46:52;99197.41;;;14.18;87.69
69257;BME280;56376;53.356;-1.748;2022-08-04T03:52:02;99209.53;;;14.21;88.07
69257;BME280;56376;53.356;-1.748;2022-08-04T04:12:26;99221.13;;;14.33;89.58
69257;BME280;56376;53.356;-1.748;2022-08-04T04:14:52;99219.34;;;14.33;89.59
69257;BME280;56376;53.356;-1.748;2022-08-04T04:20:26;99216.13;;;14.44;91.28
69257;BME280;56376;53.356;-1.748;2022-08-04T04:23:00;99213.16;;;14.50;92.53
69257;BME280;56376;53.356;-1.748;2022-08-04T04:28:37;99216.69;;;14.65;93.07
69257;BME280;56376;53.356;-1.748;2022-08-04T04:31:36;99218.88;;;14.73;93.17
69257;BME280;56376;53.356;-1.748;2022-08-04T04:45:11;99232.09;;;14.87;94.63
69257;BME280;56376;53.356;-1.748;2022-08-04T04:50:13;99237.41;;;14.85;95.73
69257;BME280;56376;53.356;-1.748;2022-08-04T04:52:49;99241.84;;;14.85;96.38
69257;BME280;56376;53.356;-1.748;2022-08-04T04:55:24;99237.69;;;14.81;96.83
69257;BME280;56376;53.356;-1.748;2022-08-04T04:57:53;99241.91;;;14.83;97.02
69257;BME280;56376;53.356;-1.748;2022-08-04T05:00:23;99253.38;;;14.82;96.38
69257;BME280;56376;53.356;-1.748;2022-08-04T05:15:52;99269.50;;;14.76;94.20
69257;BME280;56376;53.356;-1.748;2022-08-04T05:18:21;99264.16;;;14.78;92.88
69257;BME280;56376;53.356;-1.748;2022-08-04T05:20:53;99270.44;;;14.75;93.31
69257;BME280;56376;53.356;-1.748;2022-08-04T05:23:28;99270.63;;;14.72;93.56
69257;BME280;56376;53.356;-1.748;2022-08-04T05:25:58;99254.94;;;14.70;92.98
69257;BME280;56376;53.356;-1.748;2022-08-04T05:28:32;99266.22;;;14.73;93.04
69257;BME280;56376;53.356;-1.748;2022-08-04T05:31:05;99280.28;;;14.71;92.86
69257;BME280;56376;53.356;-1.748;2022-08-04T05:33:54;99284.59;;;14.73;93.19
69257;BME280;56376;53.356;-1.748;2022-08-04T05:36:23;99284.53;;;14.74;93.47
69257;BME280;56376;53.356;-1.748;2022-08-04T05:38:52;99290.53;;;14.76;93.62
69257;BME280;56376;53.356;-1.748;2022-08-04T05:41:20;99280.88;;;14.77;93.64
69257;BME280;56376;53.356;-1.748;2022-08-04T05:43:47;99288.47;;;14.81;93.71
69257;BME280;56376;53.356;-1.748;2022-08-04T05:46:15;99290.25;;;14.81;92.82
69257;BME280;56376;53.356;-1.748;2022-08-04T05:48:42;99288.47;;;14.81;93.16
69257;BME280;56376;53.356;-1.748;2022-08-04T05:51:09;99284.16;;;14.80;93.87
69257;BME280;56376;53.356;-1.748;2022-08-04T05:53:36;99289.44;;;14.80;93.91
69257;BME280;56376;53.356;-1.748;2022-08-04T05:56:04;99292.13;;;14.79;94.29
69257;BME280;56376;53.356;-1.748;2022-08-04T05:58:31;99298.41;;;14.76;94.27
69257;BME280;56376;53.356;-1.748;2022-08-04T06:01:00;99306.22;;;14.78;94.58
69257;BME280;56376;53.356;-1.748;2022-08-04T06:03:28;99298.34;;;14.78;94.42
69257;BME280;56376;53.356;-1.748;2022-08-04T06:05:56;99297.25;;;14.82;92.05
69257;BME280;56376;53.356;-1.748;2022-08-04T06:08:21;99301.72;;;14.80;91.42
69257;BME280;56376;53.356;-1.748;2022-08-04T06:10:50;99309.63;;;14.80;91.32
69257;BME280;56376;53.356;-1.748;2022-08-04T06:13:21;99310.47;;;14.80;90.57
69257;BME280;56376;53.356;-1.748;2022-08-04T06:15:51;99311.41;;;14.79;90.62
69257;BME280;56376;53.356;-1.748;2022-08-04T06:18:18;99307.06;;;14.78;91.19
69257;BME280;56376;53.356;-1.748;2022-08-04T06:20:46;99317.59;;;14.78;90.04
69257;BME280;56376;53.356;-1.748;2022-08-04T06:23:14;99313.84;;;14.82;89.99
69257;BME280;56376;53.356;-1.748;2022-08-04T06:25:46;99314.50;;;14.86;89.63
69257;BME280;56376;53.356;-1.748;2022-08-04T06:28:14;99323.94;;;14.90;90.08
69257;BME280;56376;53.356;-1.748;2022-08-04T06:30:40;99328.66;;;14.99;90.19
69257;BME280;56376;53.356;-1.748;2022-08-04T06:33:10;99336.97;;;15.07;89.90
69257;BME280;56376;53.356;-1.748;2022-08-04T06:35:50;99334.41;;;15.06;88.72
69257;BME280;56376;53.356;-1.748;2022-08-04T06:38:22;99327.63;;;15.02;88.77
69257;BME280;56376;53.356;-1.748;2022-08-04T06:40:48;99333.75;;;15.02;89.02
69257;BME280;56376;53.356;-1.748;2022-08-04T06:43:15;99346.78;;;15.04;88.52
69257;BME280;56376;53.356;-1.748;2022-08-04T06:45:41;99348.59;;;15.03;88.96
69257;BME280;56376;53.356;-1.748;2022-08-04T06:48:11;99336.28;;;15.04;89.53
69257;BME280;56376;53.356;-1.748;2022-08-04T06:50:40;99345.31;;;15.14;90.23
69257;BME280;56376;53.356;-1.748;2022-08-04T06:53:09;99358.97;;;15.21;90.01
69257;BME280;56376;53.356;-1.748;2022-08-04T06:55:36;99351.09;;;15.21;89.78
69257;BME280;56376;53.356;-1.748;2022-08-04T06:58:03;99358.13;;;15.20;88.97
69257;BME280;56376;53.356;-1.748;2022-08-04T07:00:30;99367.47;;;15.26;86.40
69257;BME280;56376;53.356;-1.748;2022-08-04T07:02:57;99370.75;;;15.29;86.96
69257;BME280;56376;53.356;-1.748;2022-08-04T07:05:23;99363.16;;;15.39;86.13
69257;BME280;56376;53.356;-1.748;2022-08-04T07:07:49;99379.38;;;15.47;85.03
69257;BME280;56376;53.356;-1.748;2022-08-04T07:10:16;99379.38;;;15.47;82.10
69257;BME280;56376;53.356;-1.748;2022-08-04T07:12:42;99389.41;;;15.41;81.09
69257;BME280;56376;53.356;-1.748;2022-08-04T07:15:09;99386.97;;;15.38;80.89
69257;BME280;56376;53.356;-1.748;2022-08-04T07:17:35;99376.25;;;15.41;82.10
69257;BME280;56376;53.356;-1.748;2022-08-04T07:20:03;99378.91;;;15.55;82.48
69257;BME280;56376;53.356;-1.748;2022-08-04T07:22:29;99385.00;;;15.71;82.02
69257;BME280;56376;53.356;-1.748;2022-08-04T07:24:56;99381.31;;;15.74;80.90
69257;BME280;56376;53.356;-1.748;2022-08-04T07:27:23;99383.75;;;15.77;76.50
69257;BME280;56376;53.356;-1.748;2022-08-04T07:29:49;99383.50;;;15.82;77.37
69257;BME280;56376;53.356;-1.748;2022-08-04T07:32:16;99393.56;;;15.89;77.91
69257;BME280;56376;53.356;-1.748;2022-08-04T07:34:43;99393.59;;;16.04;76.30
69257;BME280;56376;53.356;-1.748;2022-08-04T07:37:08;99395.94;;;16.08;76.88
69257;BME280;56376;53.356;-1.748;2022-08-04T07:39:34;99388.13;;;16.21;75.78
69257;BME280;56376;53.356;-1.748;2022-08-04T07:42:02;99383.88;;;16.33;73.16
69257;BME280;56376;53.356;-1.748;2022-08-04T07:44:32;99397.25;;;16.44;70.93
69257;BME280;56376;53.356;-1.748;2022-08-04T07:47:00;99401.19;;;16.51;71.81
69257;BME280;56376;53.356;-1.748;2022-08-04T07:49:28;99397.13;;;16.60;71.63
69257;BME280;56376;53.356;-1.748;2022-08-04T07:51:54;99394.81;;;16.68;71.44
69257;BME280;56376;53.356;-1.748;2022-08-04T07:54:20;99405.38;;;16.82;70.15
69257;BME280;56376;53.356;-1.748;2022-08-04T07:56:46;99409.63;;;16.85;68.22
69257;BME280;56376;53.356;-1.748;2022-08-04T07:59:19;99416.50;;;16.87;69.53
69257;BME280;56376;53.356;-1.748;2022-08-04T08:01:45;99407.31;;;16.93;68.11
69257;BME280;56376;53.356;-1.748;2022-08-04T08:04:12;99418.34;;;17.00;67.10
69257;BME280;56376;53.356;-1.748;2022-08-04T08:06:39;99421.25;;;17.09;66.74
69257;BME280;56376;53.356;-1.748;2022-08-04T08:09:07;99426.97;;;17.16;62.69
69257;BME280;56376;53.356;-1.748;2022-08-04T08:11:33;99426.97;;;17.16;63.46
69257;BME280;56376;53.356;-1.748;2022-08-04T08:14:00;99424.75;;;17.23;65.79
69257;BME280;56376;53.356;-1.748;2022-08-04T08:16:26;99430.00;;;17.37;66.85
69257;BME280;56376;53.356;-1.748;2022-08-04T08:18:54;99432.03;;;17.46;66.32
69257;BME280;56376;53.356;-1.748;2022-08-04T08:21:20;99431.53;;;17.54;66.10
69257;BME280;56376;53.356;-1.748;2022-08-04T08:23:46;99439.56;;;17.65;65.69
69257;BME280;56376;53.356;-1.748;2022-08-04T08:26:12;99433.47;;;17.78;64.98
69257;BME280;56376;53.356;-1.748;2022-08-04T08:28:38;99431.28;;;17.84;62.41
69257;BME280;56376;53.356;-1.748;2022-08-04T08:31:04;99433.81;;;17.86;62.25
69257;BME280;56376;53.356;-1.748;2022-08-04T08:33:29;99446.09;;;17.87;62.29
69257;BME280;56376;53.356;-1.748;2022-08-04T08:39:11;99443.03;;;18.06;61.58
69257;BME280;56376;53.356;-1.748;2022-08-04T08:42:06;99441.44;;;18.03;59.31
69257;BME280;56376;53.356;-1.748;2022-08-04T09:09:01;99456.97;;;17.82;59.60
69257;BME280;56376;53.356;-1.748;2022-08-04T09:11:37;99436.66;;;17.83;59.00
69257;BME280;56376;53.356;-1.748;2022-08-04T09:14:18;99447.03;;;17.86;59.49
69257;BME280;56376;53.356;-1.748;2022-08-04T09:16:56;99452.09;;;17.89;59.71
69257;BME280;56376;53.356;-1.748;2022-08-04T09:19:32;99440.69;;;17.88;58.20
69257;BME280;56376;53.356;-1.748;2022-08-04T09:22:03;99450.63;;;17.85;59.14
69257;BME280;56376;53.356;-1.748;2022-08-04T09:27:23;99457.31;;;17.76;56.45
69257;BME280;56376;53.356;-1.748;2022-08-04T09:30:06;99446.66;;;17.65;56.62
69257;BME280;56376;53.356;-1.748;2022-08-04T09:41:31;99444.41;;;17.59;58.57
69257;BME280;56376;53.356;-1.748;2022-08-04T09:44:15;99443.34;;;17.61;59.35
69257;BME280;56376;53.356;-1.748;2022-08-04T09:47:23;99452.31;;;17.59;58.07
69257;BME280;56376;53.356;-1.748;2022-08-04T09:49:46;99452.94;;;17.49;57.68
69257;BME280;56376;53.356;-1.748;2022-08-04T09:55:10;99456.53;;;17.48;56.94
69257;BME280;56376;53.356;-1.748;2022-08-04T10:00:48;99462.56;;;17.50;56.80
69257;BME280;56376;53.356;-1.748;2022-08-04T10:03:15;99465.09;;;17.52;57.42
69257;BME280;56376;53.356;-1.748;2022-08-04T10:06:10;99458.03;;;17.52;57.80
69257;BME280;56376;53.356;-1.748;2022-08-04T10:14:37;99460.91;;;17.62;58.01
69257;BME280;56376;53.356;-1.748;2022-08-04T10:19:42;99463.88;;;17.70;57.75
69257;BME280;56376;53.356;-1.748;2022-08-04T10:22:35;99464.28;;;17.64;55.19
69257;BME280;56376;53.356;-1.748;2022-08-04T10:25:31;99466.06;;;17.64;55.95
69257;BME280;56376;53.356;-1.748;2022-08-04T10:28:04;99457.72;;;17.57;56.62
69257;BME280;56376;53.356;-1.748;2022-08-04T10:30:32;99467.25;;;17.60;57.59
69257;BME280;56376;53.356;-1.748;2022-08-04T10:33:14;99463.31;;;17.52;57.51
69257;BME280;56376;53.356;-1.748;2022-08-04T10:36:00;99471.03;;;17.56;57.71
69257;BME280;56376;53.356;-1.748;2022-08-04T10:47:18;99488.06;;;17.64;59.74
69257;BME280;56376;53.356;-1.748;2022-08-04T10:49:52;99484.63;;;17.77;59.12
69257;BME280;56376;53.356;-1.748;2022-08-04T10:55:11;99483.91;;;17.87;60.15
69257;BME280;56376;53.356;-1.748;2022-08-04T10:57:41;99481.81;;;17.92;60.14
69257;BME280;56376;53.356;-1.748;2022-08-04T11:00:14;99504.25;;;18.00;61.32
69257;BME280;56376;53.356;-1.748;2022-08-04T11:05:38;99512.97;;;17.87;59.65
69257;BME280;56376;53.356;-1.748;2022-08-04T11:08:13;99517.16;;;17.77;58.56
69257;BME280;56376;53.356;-1.748;2022-08-04T11:10:46;99525.75;;;17.66;58.97
69257;BME280;56376;53.356;-1.748;2022-08-04T11:13:15;99537.44;;;17.49;60.79
69257;BME280;56376;53.356;-1.748;2022-08-04T11:15:51;99531.63;;;17.44;61.15
69257;BME280;56376;53.356;-1.748;2022-08-04T11:21:19;99540.78;;;17.39;64.12
69257;BME280;56376;53.356;-1.748;2022-08-04T11:23:58;99545.88;;;17.42;65.61
69257;BME280;56376;53.356;-1.748;2022-08-04T11:26:55;99549.81;;;17.49;66.00
69257;BME280;56376;53.356;-1.748;2022-08-04T11:29:28;99537.88;;;17.56;65.96
69257;BME280;56376;53.356;-1.748;2022-08-04T11:31:58;99533.16;;;17.61;65.68
69257;BME280;56376;53.356;-1.748;2022-08-04T11:34:26;99523.69;;;17.71;66.55
69257;BME280;56376;53.356;-1.748;2022-08-04T11:41:57;99528.41;;;17.93;65.09
69257;BME280;56376;53.356;-1.748;2022-08-04T11:44:26;99528.66;;;18.03;64.12
69257;BME280;56376;53.356;-1.748;2022-08-04T11:46:57;99539.00;;;18.06;60.63
69257;BME280;56376;53.356;-1.748;2022-08-04T11:49:34;99540.28;;;18.01;60.24
69257;BME280;56376;53.356;-1.748;2022-08-04T11:52:04;99548.81;;;17.91;60.79
69257;BME280;56376;53.356;-1.748;2022-08-04T11:54:32;99549.13;;;17.87;63.29
69257;BME280;56376;53.356;-1.748;2022-08-04T11:56:58;99533.91;;;17.90;62.75
69257;BME280;56376;53.356;-1.748;2022-08-04T11:59:26;99545.03;;;17.95;62.35
69257;BME280;56376;53.356;-1.748;2022-08-04T12:07:40;99546.66;;;18.24;61.98
69257;BME280;56376;53.356;-1.748;2022-08-04T12:10:23;99571.50;;;18.21;54.99
69257;BME280;56376;53.356;-1.748;2022-08-04T12:16:17;99557.63;;;18.05;56.91
69257;BME280;56376;53.356;-1.748;2022-08-04T12:18:56;99565.69;;;18.16;58.60
69257;BME280;56376;53.356;-1.748;2022-08-04T12:21:28;99564.63;;;18.19;58.51
69257;BME280;56376;53.356;-1.748;2022-08-04T12:24:01;99566.34;;;18.20;54.59
69257;BME280;56376;53.356;-1.748;2022-08-04T12:26:35;99567.91;;;18.09;56.35
69257;BME280;56376;53.356;-1.748;2022-08-04T12:29:04;99577.50;;;18.10;54.99
69257;BME280;56376;53.356;-1.748;2022-08-04T12:31:40;99583.84;;;18.08;53.96
69257;BME280;56376;53.356;-1.748;2022-08-04T12:35:14;99576.66;;;18.10;53.90
69257;BME280;56376;53.356;-1.748;2022-08-04T12:40:14;99582.22;;;18.32;53.19
69257;BME280;56376;53.356;-1.748;2022-08-04T12:42:50;99584.66;;;18.48;51.95
69257;BME280;56376;53.356;-1.748;2022-08-04T12:45:19;99569.75;;;18.60;52.02
69257;BME280;56376;53.356;-1.748;2022-08-04T12:47:47;99580.34;;;18.73;53.77
69257;BME280;56376;53.356;-1.748;2022-08-04T12:50:15;99588.63;;;18.81;51.47
69257;BME280;56376;53.356;-1.748;2022-08-04T12:52:47;99586.69;;;18.96;49.65
69257;BME280;56376;53.356;-1.748;2022-08-04T12:55:14;99585.94;;;19.07;50.92
69257;BME280;56376;53.356;-1.748;2022-08-04T12:57:41;99603.41;;;19.09;51.15
69257;BME280;56376;53.356;-1.748;2022-08-04T13:00:08;99599.50;;;19.02;48.25
69257;BME280;56376;53.356;-1.748;2022-08-04T13:02:40;99601.53;;;18.98;49.86
69257;BME280;56376;53.356;-1.748;2022-08-04T13:05:08;99600.38;;;19.02;52.64
69257;BME280;56376;53.356;-1.748;2022-08-04T13:07:42;99613.16;;;19.09;49.68
69257;BME280;56376;53.356;-1.748;2022-08-04T13:10:12;99618.75;;;19.04;49.85
69257;BME280;56376;53.356;-1.748;2022-08-04T13:12:39;99604.06;;;19.13;51.97
69257;BME280;56376;53.356;-1.748;2022-08-04T13:15:17;99595.75;;;19.17;51.84
69257;BME280;56376;53.356;-1.748;2022-08-04T13:17:50;99612.38;;;19.19;49.79
69257;BME280;56376;53.356;-1.748;2022-08-04T13:20:33;99612.63;;;19.16;47.44
69257;BME280;56376;53.356;-1.748;2022-08-04T13:23:02;99618.75;;;19.04;49.86
69257;BME280;56376;53.356;-1.748;2022-08-04T13:25:29;99619.41;;;19.08;51.01
69257;BME280;56376;53.356;-1.748;2022-08-04T13:27:58;99616.09;;;19.17;47.36
69257;BME280;56376;53.356;-1.748;2022-08-04T13:30:25;99616.41;;;19.12;47.52
69257;BME280;56376;53.356;-1.748;2022-08-04T13:32:57;99603.59;;;19.19;49.12
69257;BME280;56376;53.356;-1.748;2022-08-04T13:35:25;99599.44;;;19.28;47.40
69257;BME280;56376;53.356;-1.748;2022-08-04T13:37:53;99613.66;;;19.27;48.95
69257;BME280;56376;53.356;-1.748;2022-08-04T13:40:21;99609.66;;;19.21;47.45
69257;BME280;56376;53.356;-1.748;2022-08-04T13:42:50;99607.13;;;19.07;46.62
69257;BME280;56376;53.356;-1.748;2022-08-04T13:45:20;99604.06;;;18.87;49.04
69257;BME280;56376;53.356;-1.748;2022-08-04T13:47:47;99596.97;;;18.88;50.25
69257;BME280;56376;53.356;-1.748;2022-08-04T13:50:24;99591.88;;;18.97;49.61
69257;BME280;56376;53.356;-1.748;2022-08-04T13:52:53;99598.75;;;19.13;51.07
69257;BME280;56376;53.356;-1.748;2022-08-04T13:57:49;99601.88;;;19.43;50.55
69257;BME280;56376;53.356;-1.748;2022-08-04T14:00:17;99601.81;;;19.56;51.07
69257;BME280;56376;53.356;-1.748;2022-08-04T14:02:45;99605.72;;;19.76;51.62
69257;BME280;56376;53.356;-1.748;2022-08-04T14:05:20;99610.22;;;19.87;49.98
69257;BME280;56376;53.356;-1.748;2022-08-04T14:08:06;99610.81;;;19.91;48.52
69257;BME280;56376;53.356;-1.748;2022-08-04T14:10:33;99603.38;;;19.96;48.70
69257;BME280;56376;53.356;-1.748;2022-08-04T14:13:02;99624.59;;;19.96;49.15
69257;BME280;56376;53.356;-1.748;2022-08-04T14:15:41;99609.56;;;20.07;50.01
69257;BME280;56376;53.356;-1.748;2022-08-04T14:18:22;99614.47;;;20.25;49.54
69257;BME280;56376;53.356;-1.748;2022-08-04T14:21:06;99615.13;;;20.40;48.90
69257;BME280;56376;53.356;-1.748;2022-08-04T14:23:42;99611.53;;;20.52;47.45
69257;BME280;56376;53.356;-1.748;2022-08-04T14:26:25;99617.88;;;20.62;47.54
69257;BME280;56376;53.356;-1.748;2022-08-04T14:28:53;99618.00;;;20.72;47.03
69257;BME280;56376;53.356;-1.748;2022-08-04T14:31:22;99617.53;;;20.78;45.29
69257;BME280;56376;53.356;-1.748;2022-08-04T14:33:50;99625.63;;;20.77;45.36
69257;BME280;56376;53.356;-1.748;2022-08-04T14:36:17;99629.38;;;20.85;46.33
69257;BME280;56376;53.356;-1.748;2022-08-04T14:38:54;99625.03;;;20.95;44.91
69257;BME280;56376;53.356;-1.748;2022-08-04T14:41:25;99625.03;;;20.95;46.00
69257;BME280;56376;53.356;-1.748;2022-08-04T14:43:53;99617.56;;;21.01;46.20
69257;BME280;56376;53.356;-1.748;2022-08-04T14:46:20;99622.88;;;21.12;45.22
69257;BME280;56376;53.356;-1.748;2022-08-04T14:51:42;99612.00;;;21.04;45.15
69257;BME280;56376;53.356;-1.748;2022-08-04T14:54:10;99624.19;;;20.95;45.01
69257;BME280;56376;53.356;-1.748;2022-08-04T14:56:41;99623.81;;;20.77;46.97
69257;BME280;56376;53.356;-1.748;2022-08-04T14:59:09;99625.25;;;20.70;47.89
69257;BME280;56376;53.356;-1.748;2022-08-04T15:01:37;99624.06;;;20.74;49.21
69257;BME280;56376;53.356;-1.748;2022-08-04T15:04:04;99625.50;;;20.78;48.57
69257;BME280;56376;53.356;-1.748;2022-08-04T15:06:31;99625.50;;;20.78;47.10
69257;BME280;56376;53.356;-1.748;2022-08-04T15:09:00;99629.84;;;20.79;47.34
69257;BME280;56376;53.356;-1.748;2022-08-04T15:11:26;99638.53;;;20.81;45.63
69257;BME280;56376;53.356;-1.748;2022-08-04T15:13:53;99632.50;;;20.79;46.76
69257;BME280;56376;53.356;-1.748;2022-08-04T15:16:21;99633.69;;;20.64;47.19
69257;BME280;56376;53.356;-1.748;2022-08-04T15:18:47;99640.09;;;20.48;48.33
69257;BME280;56376;53.356;-1.748;2022-08-04T15:21:13;99656.84;;;20.38;48.73
69257;BME280;56376;53.356;-1.748;2022-08-04T15:23:39;99653.28;;;20.26;49.32
69257;BME280;56376;53.356;-1.748;2022-08-04T15:26:06;99642.53;;;20.16;48.82
69257;BME280;56376;53.356;-1.748;2022-08-04T15:28:35;99651.41;;;20.04;48.45
69257;BME280;56376;53.356;-1.748;2022-08-04T15:31:03;99644.78;;;19.85;49.58
69257;BME280;56376;53.356;-1.748;2022-08-04T15:33:31;99654.16;;;19.78;49.46
69257;BME280;56376;53.356;-1.748;2022-08-04T15:36:14;99654.53;;;19.85;50.35
69257;BME280;56376;53.356;-1.748;2022-08-04T15:41:27;99668.97;;;19.81;47.77
69257;BME280;56376;53.356;-1.748;2022-08-04T15:49:18;99663.16;;;19.63;47.21
69257;BME280;56376;53.356;-1.748;2022-08-04T15:51:44;99669.75;;;19.57;48.80
69257;BME280;56376;53.356;-1.748;2022-08-04T15:56:43;99672.19;;;19.48;50.32
69257;BME280;56376;53.356;-1.748;2022-08-04T15:59:09;99669.03;;;19.42;49.51
69257;BME280;56376;53.356;-1.748;2022-08-04T16:01:34;99665.47;;;19.31;48.92
69257;BME280;56376;53.356;-1.748;2022-08-04T16:04:19;99662.91;;;19.29;49.17
69257;BME280;56376;53.356;-1.748;2022-08-04T16:06:45;99665.78;;;19.26;49.35
69257;BME280;56376;53.356;-1.748;2022-08-04T16:09:22;99670.75;;;19.31;47.58
69257;BME280;56376;53.356;-1.748;2022-08-04T16:11:48;99673.72;;;19.26;48.85
69257;BME280;56376;53.356;-1.748;2022-08-04T16:14:14;99661.63;;;19.22;48.43
69257;BME280;56376;53.356;-1.748;2022-08-04T16:19:30;99668.00;;;19.19;49.11
69257;BME280;56376;53.356;-1.748;2022-08-04T16:22:00;99680.41;;;19.19;49.02
69257;BME280;56376;53.356;-1.748;2022-08-04T16:24:40;99680.63;;;19.16;48.99
69257;BME280;56376;53.356;-1.748;2022-08-04T16:27:11;99690.78;;;19.09;47.20
69257;BME280;56376;53.356;-1.748;2022-08-04T16:29:46;99692.13;;;19.02;46.13
69257;BME280;56376;53.356;-1.748;2022-08-04T16:34:51;99685.56;;;18.82;45.23
69257;BME280;56376;53.356;-1.748;2022-08-04T16:37:18;99689.97;;;18.69;46.52
69257;BME280;56376;53.356;-1.748;2022-08-04T16:39:45;99697.06;;;18.68;46.85
69257;BME280;56376;53.356;-1.748;2022-08-04T16:50:19;99699.13;;;18.50;45.82
69257;BME280;56376;53.356;-1.748;2022-08-04T16:52:47;99700.50;;;18.43;47.92
69257;BME280;56376;53.356;-1.748;2022-08-04T16:55:18;99713.72;;;18.43;46.47
69257;BME280;56376;53.356;-1.748;2022-08-04T16:57:48;99703.44;;;18.38;46.70
69257;BME280;56376;53.356;-1.748;2022-08-04T17:00:14;99719.41;;;18.37;45.96
69257;BME280;56376;53.356;-1.748;2022-08-04T17:02:40;99719.03;;;18.29;46.25
69257;BME280;56376;53.356;-1.748;2022-08-04T17:05:20;99710.78;;;18.21;46.97
69257;BME280;56376;53.356;-1.748;2022-08-04T17:07:54;99715.84;;;18.24;45.82
69257;BME280;56376;53.356;-1.748;2022-08-04T17:10:35;99715.06;;;18.09;47.14
69257;BME280;56376;53.356;-1.748;2022-08-04T17:13:28;99706.47;;;18.05;47.77
69257;BME280;56376;53.356;-1.748;2022-08-04T17:15:57;99718.59;;;17.95;48.00
69257;BME280;56376;53.356;-1.748;2022-08-04T17:18:25;99710.00;;;17.91;46.29